Main page
METAR-TAF:

METAR-TAF

Airports :

Ghedi Air Base

Brescia Ghedi, Italy

latitude: 45-25N, longitude: 010-17E, elevation: 102 m

Current weather observation

The report was made 1 hour and 10 minutes ago, at 16:55 UTC
Wind 6 kt from the West
Temperature 23°C
Humidity 61%
Pressure 1015 hPa
Visibility 10 km or more
Few clouds at a height of 5000 ft

METAR: LIPL 141655Z 28006KT 9999 FEW050 23/15 Q1015 RMK SCT SCT200 VIS MIN 9999 WIND THR31 26006KT WIND THR13 28005KT BLU

Time: 20:05 (18:05 UTC)

Forecast

The report was made 1 hour and 5 minutes ago, at 17:00 UTC
Forecast valid from 14 at 18 UTC to 15 at 03 UTC
Wind 7 kt from the West
Visibility 10 km or more
Scattered clouds at a height of 4000 ft
Scattered clouds at a height of 8000 ft
Becoming
from 14 at 18 UTC to 14 at 20 UTC
Wind 3 kt from variable directions

TAF: LIPL 141700Z 1418/1503 27007KT 9999 SCT040 SCT080 BECMG 1418/1420 VRB03KT

Weather observations and forecasts of more than 4000 airports (METAR and TAF reports).

The available stations are represented by yellow and red dots on the map.

Hover mouse over dot to see the name of the station.

Then click to see weather observations and forecasts.

To change the map : click on the green buttons with a black cross to zoom in, on the green button with a dash to zoom out, or on the green arrows for adjacent maps.


METAR-TAF: